Time;durP1;ratioP1;P1;durP2;ratioP2;P2;SDS_P1;SDS_P2;PMS_P1;PMS_P2;Temp;Humidity;BMP_temperature;BMP_pressure;BME280_temperature;BME280_humidity;BME280_pressure;Samples;Min_cycle;Max_cycle;Signal;HPM_P1;HPM_P2
2022/01/13 00:02:20;;;;;;;11.15;6.30;;;20.10;53.20;;;;;;4991893;28;20042;-60
2022/01/13 00:04:46;;;;;;;12.45;6.03;;;20.10;53.20;;;;;;4993155;28;20038;-60
2022/01/13 00:07:12;;;;;;;11.77;6.55;;;20.00;53.10;;;;;;4991555;28;20042;-60
2022/01/13 00:09:38;;;;;;;12.63;6.15;;;20.10;53.20;;;;;;4993715;28;20046;-60
2022/01/13 00:12:05;;;;;;;13.18;6.60;;;20.00;53.10;;;;;;4996925;28;20176;-60
2022/01/13 00:19:45;;;;;;;15.23;6.70;;;20.00;53.10;;;;;;4996183;28;20502;-60
2022/01/13 00:22:46;;;;;;;13.75;6.65;;;20.00;53.00;;;;;;4995285;28;20478;-60
2022/01/13 00:25:14;;;;;;;12.65;6.78;;;20.00;53.10;;;;;;4996402;28;20153;-60
2022/01/13 00:27:45;;;;;;;13.70;6.97;;;20.00;53.00;;;;;;4996465;28;20050;-60
2022/01/13 00:30:16;;;;;;;12.75;6.88;;;19.90;53.00;;;;;;4995738;28;20390;-60
2022/01/13 00:32:42;;;;;;;14.25;6.97;;;19.90;53.00;;;;;;4996674;28;20046;-59
2022/01/13 00:35:08;;;;;;;13.05;6.65;;;20.00;53.00;;;;;;4996327;28;20038;-60
2022/01/13 00:37:35;;;;;;;12.73;6.82;;;19.90;52.90;;;;;;4995338;28;20053;-60
2022/01/13 00:40:01;;;;;;;13.23;7.35;;;19.90;52.90;;;;;;4996182;28;20039;-60
2022/01/13 00:42:27;;;;;;;13.57;6.93;;;19.90;52.90;;;;;;4995303;28;20042;-60
2022/01/13 00:44:52;;;;;;;12.18;6.65;;;19.90;52.90;;;;;;4996027;28;20046;-60
2022/01/13 00:47:18;;;;;;;12.35;6.72;;;19.90;52.90;;;;;;4995592;28;20046;-60
2022/01/13 00:49:43;;;;;;;12.50;6.90;;;19.80;52.80;;;;;;4995197;28;20049;-59
2022/01/13 00:52:09;;;;;;;12.82;6.25;;;19.80;52.70;;;;;;4995747;28;20088;-60
2022/01/13 00:54:34;;;;;;;11.93;6.82;;;19.90;52.80;;;;;;4995231;28;20057;-60
2022/01/13 00:57:00;;;;;;;13.48;7.18;;;19.80;52.70;;;;;;4995027;28;20045;-60
2022/01/13 00:59:25;;;;;;;12.82;7.10;;;19.80;52.80;;;;;;4995311;28;20069;-60
2022/01/13 01:01:52;;;;;;;11.35;6.50;;;19.80;52.70;;;;;;4995625;28;20045;-60
2022/01/13 01:04:18;;;;;;;10.93;6.80;;;19.80;52.70;;;;;;4994933;28;20034;-60
2022/01/13 01:06:44;;;;;;;11.60;6.75;;;19.80;52.70;;;;;;4995715;28;20136;-60
2022/01/13 01:09:14;;;;;;;14.90;6.93;;;19.80;52.70;;;;;;4995633;28;20046;-60
2022/01/13 01:11:40;;;;;;;13.50;6.57;;;19.80;53.40;;;;;;4994806;28;20038;-60
2022/01/13 01:14:07;;;;;;;15.02;8.15;;;19.80;52.80;;;;;;4995741;28;20051;-60
2022/01/13 01:16:34;;;;;;;13.20;6.63;;;19.80;52.70;;;;;;4995218;28;20073;-60
2022/01/13 01:19:04;;;;;;;14.00;7.03;;;19.70;52.60;;;;;;4994702;28;20181;-60
2022/01/13 01:26:36;;;;;;;10.65;6.20;;;19.70;52.60;;;;;;4994482;28;20054;-60
2022/01/13 01:29:20;;;;;;;11.75;6.93;;;19.70;52.50;;;;;;4995530;28;20038;-60
2022/01/13 01:31:49;;;;;;;10.68;6.78;;;19.70;52.50;;;;;;4994577;28;20048;-60
2022/01/13 01:34:35;;;;;;;11.50;6.72;;;19.70;52.50;;;;;;4994999;28;20050;-60
2022/01/13 01:37:01;;;;;;;11.52;6.47;;;19.70;52.50;;;;;;4995382;28;20066;-60
2022/01/13 01:39:26;;;;;;;12.00;6.65;;;19.70;52.50;;;;;;4992810;28;20097;-60
2022/01/13 01:41:53;;;;;;;13.00;6.90;;;19.60;52.40;;;;;;4995105;28;20046;-60
2022/01/13 01:44:30;;;;;;;12.63;6.22;;;19.60;52.40;;;;;;4994589;28;20050;-60
2022/01/13 01:46:58;;;;;;;11.80;6.50;;;19.60;52.40;;;;;;4994387;28;20042;-60
2022/01/13 01:49:25;;;;;;;11.27;6.53;;;19.60;52.40;;;;;;4993528;28;20050;-60
2022/01/13 01:51:55;;;;;;;10.23;6.80;;;19.60;52.40;;;;;;4994990;28;20054;-60
2022/01/13 01:54:21;;;;;;;10.20;6.32;;;19.60;52.40;;;;;;4993744;28;20050;-60
2022/01/13 01:56:47;;;;;;;11.23;6.72;;;19.60;52.40;;;;;;4994955;28;20113;-60
2022/01/13 01:59:15;;;;;;;11.70;6.55;;;19.60;52.40;;;;;;4994199;28;20051;-60
2022/01/13 02:01:41;;;;;;;11.80;6.50;;;19.60;52.40;;;;;;4993893;28;20093;-60
2022/01/13 02:04:07;;;;;;;10.30;5.78;;;19.50;52.30;;;;;;4994540;28;20046;-60
2022/01/13 02:06:33;;;;;;;10.45;6.20;;;19.50;52.30;;;;;;4994326;28;20485;-60
2022/01/13 02:08:58;;;;;;;9.82;5.78;;;19.50;52.30;;;;;;4993650;28;20093;-59
2022/01/13 02:11:25;;;;;;;10.77;5.95;;;19.50;52.30;;;;;;4994354;28;20515;-60
2022/01/13 02:13:54;;;;;;;11.45;6.22;;;19.50;52.20;;;;;;4993790;28;20478;-59
2022/01/13 02:19:00;;;;;;;9.98;6.10;;;19.50;52.30;;;;;;4994597;28;20051;-60
2022/01/13 02:21:26;;;;;;;10.35;5.90;;;19.50;52.30;;;;;;4993282;28;20393;-59
2022/01/13 02:23:53;;;;;;;10.98;6.10;;;19.50;52.30;;;;;;4993909;28;20464;-60
2022/01/13 02:26:19;;;;;;;10.75;6.22;;;19.50;52.30;;;;;;4994017;28;20081;-60
2022/01/13 02:28:45;;;;;;;11.05;5.95;;;19.50;52.30;;;;;;4993559;28;20061;-60
2022/01/13 02:31:12;;;;;;;11.48;5.75;;;19.50;52.30;;;;;;4994240;28;20161;-60
2022/01/13 02:33:38;;;;;;;10.32;5.63;;;19.50;52.40;;;;;;4994142;28;20057;-60
2022/01/13 02:36:04;;;;;;;10.30;5.90;;;19.40;52.30;;;;;;4993224;28;20042;-60
2022/01/13 02:38:29;;;;;;;11.02;6.22;;;19.50;52.30;;;;;;4992706;28;20116;-60
2022/01/13 02:40:56;;;;;;;10.05;5.65;;;19.50;52.40;;;;;;4994506;28;20050;-60
2022/01/13 02:43:21;;;;;;;8.55;5.30;;;19.40;52.30;;;;;;4993113;28;20474;-60
2022/01/13 02:46:06;;;;;;;10.23;5.63;;;19.40;52.30;;;;;;4993527;28;20157;-59
2022/01/13 02:48:32;;;;;;;10.00;5.70;;;19.40;52.30;;;;;;4993751;28;20042;-60
2022/01/13 02:50:58;;;;;;;9.50;5.55;;;19.40;52.30;;;;;;4993233;28;20061;-60
2022/01/13 02:53:24;;;;;;;8.90;4.80;;;19.40;52.30;;;;;;4993292;28;20149;-60
2022/01/13 02:55:50;;;;;;;8.27;5.22;;;19.40;52.30;;;;;;4993947;28;20038;-60
2022/01/13 02:58:16;;;;;;;10.70;5.57;;;19.50;52.30;;;;;;4992411;28;20050;-60
2022/01/13 03:00:42;;;;;;;9.25;5.40;;;19.50;52.40;;;;;;4998280;28;20133;-59
2022/01/13 03:03:08;;;;;;;9.18;4.78;;;19.40;52.30;;;;;;5012075;28;20049;-59
2022/01/13 03:05:38;;;;;;;8.63;5.18;;;19.50;52.30;;;;;;5012387;28;20071;-60
2022/01/13 03:08:07;;;;;;;9.60;5.30;;;19.40;52.20;;;;;;5012901;28;20049;-60
2022/01/13 03:10:33;;;;;;;8.93;5.38;;;19.50;52.30;;;;;;5012092;28;20041;-60
2022/01/13 03:12:59;;;;;;;9.90;5.05;;;19.50;52.20;;;;;;5012880;28;20045;-60
2022/01/13 03:15:25;;;;;;;7.05;4.65;;;19.50;52.20;;;;;;5012869;28;20053;-59
2022/01/13 03:17:50;;;;;;;8.95;5.07;;;19.50;52.20;;;;;;5012146;28;20100;-59
2022/01/13 03:20:17;;;;;;;8.50;4.40;;;19.50;52.10;;;;;;5012531;28;20398;-60
2022/01/13 03:22:42;;;;;;;9.25;5.43;;;19.50;52.10;;;;;;5013063;28;20486;-60
2022/01/13 03:25:09;;;;;;;9.07;5.10;;;19.60;52.10;;;;;;5012419;28;20046;-59
2022/01/13 03:27:35;;;;;;;7.65;4.80;;;19.60;52.10;;;;;;5012864;28;20054;-60
2022/01/13 03:30:06;;;;;;;8.55;4.90;;;19.60;52.10;;;;;;5012975;28;20042;-59
2022/01/13 03:32:33;;;;;;;7.00;4.53;;;19.60;52.10;;;;;;5009927;28;20053;-60
2022/01/13 03:34:59;;;;;;;8.13;4.35;;;19.60;52.10;;;;;;5012840;28;20477;-60
2022/01/13 03:37:25;;;;;;;9.30;5.03;;;19.60;52.00;;;;;;5012613;28;20176;-60
2022/01/13 03:39:50;;;;;;;10.20;4.97;;;19.60;52.00;;;;;;5010913;28;20401;-60
2022/01/13 03:42:16;;;;;;;7.30;4.32;;;19.60;52.00;;;;;;5012361;28;20131;-60
2022/01/13 03:44:41;;;;;;;7.22;4.30;;;19.60;52.00;;;;;;5013815;28;20053;-59
2022/01/13 03:47:09;;;;;;;7.18;4.05;;;19.60;52.00;;;;;;5014726;28;20046;-59
2022/01/13 03:49:35;;;;;;;7.05;4.38;;;19.70;52.00;;;;;;5016540;28;20136;-59
2022/01/13 03:52:03;;;;;;;7.40;4.22;;;19.60;52.00;;;;;;5016638;28;20132;-60
2022/01/13 03:54:32;;;;;;;6.38;3.97;;;19.70;52.00;;;;;;5015669;28;20049;-60
2022/01/13 03:57:13;;;;;;;7.47;3.85;;;19.70;52.00;;;;;;5016724;28;20096;-60
2022/01/13 04:00:17;;;;;;;6.97;4.15;;;19.70;51.90;;;;;;5015502;28;20093;-60
2022/01/13 04:02:42;;;;;;;6.28;3.72;;;19.70;51.90;;;;;;5016710;28;20089;-59
2022/01/13 04:05:08;;;;;;;7.25;4.10;;;19.70;51.90;;;;;;5016643;28;20084;-60
2022/01/13 04:07:34;;;;;;;6.55;4.00;;;19.70;51.90;;;;;;5015148;28;20095;-60
2022/01/13 04:09:59;;;;;;;7.70;4.03;;;19.70;51.90;;;;;;5016138;28;20045;-60
2022/01/13 04:12:27;;;;;;;7.45;4.05;;;19.70;51.80;;;;;;5015700;28;20107;-60
2022/01/13 04:14:56;;;;;;;6.17;3.70;;;19.70;51.80;;;;;;5015751;28;20104;-60
2022/01/13 04:17:22;;;;;;;6.43;3.50;;;19.70;51.80;;;;;;5016143;28;20305;-60
2022/01/13 04:19:48;;;;;;;6.40;3.70;;;19.80;51.80;;;;;;5016128;28;20041;-60
2022/01/13 04:22:14;;;;;;;6.45;3.97;;;19.70;51.80;;;;;;5014509;28;20104;-59
2022/01/13 04:24:45;;;;;;;6.22;3.92;;;19.70;51.70;;;;;;5016256;28;20042;-59
2022/01/13 04:27:12;;;;;;;5.70;3.50;;;19.80;51.80;;;;;;5015273;28;20616;-59
2022/01/13 04:29:41;;;;;;;6.70;3.70;;;19.80;51.70;;;;;;5015512;28;20065;-60
2022/01/13 04:32:07;;;;;;;6.00;3.38;;;19.70;51.70;;;;;;5015970;28;20050;-59
2022/01/13 04:34:32;;;;;;;6.28;3.53;;;19.80;51.80;;;;;;5014585;28;20408;-59
2022/01/13 04:36:58;;;;;;;6.88;3.83;;;19.80;51.70;;;;;;5015484;28;20489;-59
2022/01/13 04:39:24;;;;;;;5.97;3.72;;;19.80;51.70;;;;;;5015282;28;20042;-59
2022/01/13 04:41:52;;;;;;;5.90;3.50;;;19.80;51.70;;;;;;5014805;28;20038;-60
2022/01/13 04:44:18;;;;;;;6.75;3.97;;;19.80;51.60;;;;;;5015748;28;20049;-59
2022/01/13 04:46:44;;;;;;;6.28;3.47;;;19.80;51.60;;;;;;5015352;28;20414;-59
2022/01/13 04:49:10;;;;;;;6.63;3.40;;;19.80;51.60;;;;;;5014883;28;20560;-59
2022/01/13 04:51:36;;;;;;;6.05;3.30;;;19.90;51.70;;;;;;5015752;28;20124;-59
2022/01/13 04:54:02;;;;;;;6.03;3.42;;;19.80;51.60;;;;;;5015666;28;20030;-60
2022/01/13 04:59:16;;;;;;;6.45;3.50;;;19.80;51.60;;;;;;4986679;28;20104;-60
2022/01/13 05:01:42;;;;;;;5.28;3.13;;;19.80;51.60;;;;;;5015064;28;20049;-60
2022/01/13 05:04:07;;;;;;;5.30;3.10;;;19.90;51.60;;;;;;5014347;28;20504;-60
2022/01/13 05:06:33;;;;;;;5.68;3.15;;;19.90;51.60;;;;;;5014509;28;20382;-59
2022/01/13 05:08:58;;;;;;;5.65;3.15;;;19.90;51.50;;;;;;5015268;28;20390;-60
2022/01/13 05:11:24;;;;;;;4.90;3.03;;;19.90;51.50;;;;;;5014372;28;20058;-60
2022/01/13 05:13:50;;;;;;;7.07;4.00;;;19.90;51.50;;;;;;5015404;28;20034;-60
2022/01/13 05:17:45;;;;;;;5.00;3.13;;;19.90;51.50;;;;;;5014711;28;20493;-59
2022/01/13 05:19:15;;;;;;;5.45;3.30;;;19.90;51.40;;;;;;5005911;28;20046;-60
2022/01/13 05:24:18;;;;;;;4.23;2.70;;;19.90;51.40;;;;;;5013614;28;20378;-59
2022/01/13 05:26:43;;;;;;;4.78;3.03;;;19.90;51.30;;;;;;5015188;28;20065;-60
2022/01/13 05:29:12;;;;;;;5.80;2.90;;;19.90;51.30;;;;;;5014966;28;20547;-59
2022/01/13 05:31:37;;;;;;;5.18;3.00;;;19.90;51.30;;;;;;5014238;28;20044;-59
2022/01/13 05:34:03;;;;;;;6.25;3.47;;;19.90;51.20;;;;;;5014719;28;20041;-59
2022/01/13 05:36:28;;;;;;;4.50;2.58;;;20.00;51.20;;;;;;5014139;28;20046;-59
2022/01/13 05:38:54;;;;;;;5.63;3.28;;;20.00;51.20;;;;;;5013844;28;20489;-60
2022/01/13 05:41:19;;;;;;;5.07;3.00;;;19.90;51.10;;;;;;5014373;28;20085;-60
2022/01/13 05:43:45;;;;;;;5.43;3.15;;;20.00;51.10;;;;;;5014298;28;20050;-60
2022/01/13 05:46:10;;;;;;;4.47;2.70;;;19.90;51.10;;;;;;5013867;28;20046;-59
2022/01/13 05:48:36;;;;;;;4.68;2.67;;;19.90;51.00;;;;;;5014076;28;20048;-59
2022/01/13 05:51:01;;;;;;;5.38;3.15;;;20.00;51.00;;;;;;5014283;28;20132;-59
2022/01/13 05:53:27;;;;;;;4.97;3.00;;;19.90;50.90;;;;;;5013341;28;20504;-60
2022/01/13 05:55:52;;;;;;;5.68;3.42;;;20.00;51.00;;;;;;5014440;28;20048;-59
2022/01/13 05:58:18;;;;;;;5.15;3.25;;;20.00;51.00;;;;;;5013903;28;20065;-59
2022/01/13 06:00:43;;;;;;;5.50;2.97;;;20.00;50.90;;;;;;5013302;28;20104;-59
2022/01/13 06:03:09;;;;;;;5.65;3.13;;;20.00;50.90;;;;;;5014253;28;20515;-59
2022/01/13 06:05:35;;;;;;;5.07;3.28;;;20.00;50.90;;;;;;5013973;28;20042;-60
2022/01/13 06:08:01;;;;;;;6.10;3.47;;;20.00;50.90;;;;;;5012926;28;20045;-60
2022/01/13 06:10:26;;;;;;;6.53;3.53;;;20.00;50.90;;;;;;5013468;28;20052;-60
2022/01/13 06:12:52;;;;;;;5.03;3.00;;;20.00;50.80;;;;;;5012073;28;20509;-60
2022/01/13 06:15:19;;;;;;;6.25;3.30;;;20.10;50.80;;;;;;5013940;28;20038;-59
2022/01/13 06:17:45;;;;;;;5.20;3.20;;;20.00;50.70;;;;;;5014301;28;20042;-60
2022/01/13 06:20:11;;;;;;;5.72;3.25;;;20.00;50.70;;;;;;5013091;28;20033;-60
2022/01/13 06:22:38;;;;;;;4.85;3.05;;;20.00;50.70;;;;;;5013498;28;20042;-60
2022/01/13 06:25:04;;;;;;;5.32;3.42;;;20.00;50.80;;;;;;5013744;28;20096;-60
2022/01/13 06:27:30;;;;;;;5.93;3.20;;;20.10;50.80;;;;;;5012636;28;20042;-60
2022/01/13 06:29:55;;;;;;;5.18;2.92;;;20.10;50.80;;;;;;5013621;28;20057;-60
2022/01/13 06:32:21;;;;;;;5.30;2.97;;;20.10;50.70;;;;;;5013386;28;20073;-60
2022/01/13 06:34:48;;;;;;;5.80;3.10;;;20.10;50.70;;;;;;5013177;28;20045;-60
2022/01/13 06:37:13;;;;;;;5.70;3.33;;;20.10;50.70;;;;;;5013184;28;20100;-60
2022/01/13 06:39:39;;;;;;;4.55;2.97;;;20.00;50.60;;;;;;5013765;28;20038;-59
2022/01/13 06:42:05;;;;;;;5.63;3.10;;;20.10;50.60;;;;;;5012668;28;20047;-59
2022/01/13 06:44:31;;;;;;;6.15;3.28;;;20.00;50.60;;;;;;5011873;28;20041;-59
2022/01/13 06:46:57;;;;;;;6.25;3.30;;;20.10;50.60;;;;;;5013210;28;20079;-60
2022/01/13 06:49:22;;;;;;;5.20;3.22;;;20.10;50.60;;;;;;5011495;28;20076;-60
2022/01/13 06:51:48;;;;;;;5.75;2.95;;;20.10;50.60;;;;;;5013530;28;20126;-60
2022/01/13 06:54:13;;;;;;;4.00;2.70;;;20.10;50.60;;;;;;5013027;28;20092;-60
2022/01/13 06:56:39;;;;;;;5.70;3.30;;;20.10;50.60;;;;;;5012110;28;20041;-59
2022/01/13 06:59:10;;;;;;;5.05;3.03;;;20.10;50.50;;;;;;5013382;28;20050;-59
2022/01/13 07:01:36;;;;;;;5.10;3.03;;;20.10;50.50;;;;;;5012799;28;20066;-60
2022/01/13 07:04:02;;;;;;;5.82;3.35;;;20.10;50.50;;;;;;5012419;28;20407;-59
2022/01/13 07:06:27;;;;;;;5.30;2.85;;;20.10;50.50;;;;;;5013100;28;20045;-60
2022/01/13 07:08:53;;;;;;;5.93;3.20;;;20.10;50.50;;;;;;5013128;28;20042;-60
2022/01/13 07:11:18;;;;;;;4.97;2.72;;;20.10;50.40;;;;;;5010933;28;20042;-59
2022/01/13 07:13:44;;;;;;;4.55;2.78;;;20.10;50.40;;;;;;5013148;28;20473;-59
2022/01/13 07:16:09;;;;;;;4.57;2.75;;;20.10;50.40;;;;;;5012489;28;20096;-60
2022/01/13 07:18:38;;;;;;;4.60;2.83;;;20.20;50.40;;;;;;5012684;28;20050;-59
2022/01/13 07:21:06;;;;;;;5.13;2.70;;;20.10;50.40;;;;;;5012398;28;20078;-59
2022/01/13 07:23:31;;;;;;;5.70;2.95;;;20.10;50.40;;;;;;5011991;28;20049;-59
2022/01/13 07:25:57;;;;;;;5.10;2.75;;;20.20;50.40;;;;;;5013176;28;20046;-60
2022/01/13 07:28:22;;;;;;;5.68;2.90;;;20.20;50.40;;;;;;5012500;28;20053;-59
2022/01/13 07:30:48;;;;;;;4.45;2.78;;;20.10;50.30;;;;;;5012099;28;20513;-59
2022/01/13 07:33:13;;;;;;;6.05;3.03;;;20.10;50.30;;;;;;5012620;28;20500;-59
2022/01/13 07:35:39;;;;;;;4.00;2.40;;;20.10;50.30;;;;;;5012851;28;20046;-59
2022/01/13 07:38:04;;;;;;;6.65;3.35;;;20.10;50.30;;;;;;5011683;28;20042;-59
2022/01/13 07:40:30;;;;;;;5.82;2.83;;;20.20;50.30;;;;;;5012627;28;20045;-59
2022/01/13 07:42:55;;;;;;;4.63;2.55;;;20.20;50.30;;;;;;5012961;28;20050;-60
2022/01/13 07:45:21;;;;;;;4.82;2.83;;;20.20;50.30;;;;;;4994179;28;20042;-60
2022/01/13 07:47:46;;;;;;;4.68;2.72;;;20.20;50.20;;;;;;4992966;28;20382;-59
2022/01/13 07:50:13;;;;;;;6.10;2.78;;;20.20;50.20;;;;;;4993050;28;20057;-60
2022/01/13 07:52:38;;;;;;;5.32;2.65;;;20.20;50.20;;;;;;4991968;28;20452;-60
2022/01/13 07:55:04;;;;;;;5.82;2.90;;;20.20;50.20;;;;;;4993130;28;20046;-60
2022/01/13 07:57:30;;;;;;;4.65;2.55;;;20.20;50.20;;;;;;4992847;28;20042;-60
2022/01/13 07:59:56;;;;;;;5.60;2.80;;;20.20;50.20;;;;;;4992134;28;20112;-60
2022/01/13 08:02:22;;;;;;;4.57;2.80;;;20.20;50.20;;;;;;4992597;28;20125;-60
2022/01/13 08:04:49;;;;;;;5.35;2.72;;;20.20;50.20;;;;;;4994490;28;20101;-61
2022/01/13 08:07:15;;;;;;;5.30;3.20;;;20.20;50.30;;;;;;4991682;28;20069;-60
2022/01/13 08:09:40;;;;;;;6.65;3.22;;;20.20;50.50;;;;;;4993028;28;20125;-60
2022/01/13 08:12:06;;;;;;;5.78;2.97;;;20.20;50.60;;;;;;4993025;28;20129;-61
2022/01/13 08:14:31;;;;;;;5.97;3.08;;;20.20;50.70;;;;;;4991438;28;20043;-60
2022/01/13 08:17:00;;;;;;;11.13;3.58;;;20.20;50.80;;;;;;4992990;28;20050;-60
2022/01/13 08:22:10;;;;;;;5.70;3.00;;;20.20;50.80;;;;;;4992802;28;19922;-61
2022/01/13 08:24:35;;;;;;;6.00;3.13;;;20.20;50.80;;;;;;4992544;28;20038;-61
2022/01/13 08:27:01;;;;;;;5.07;3.10;;;20.30;51.00;;;;;;4991952;28;20446;-60
2022/01/13 08:29:26;;;;;;;6.68;3.35;;;20.20;50.90;;;;;;4992520;28;20038;-60
2022/01/13 08:31:52;;;;;;;5.50;3.03;;;20.30;51.00;;;;;;4995235;28;20049;-60
2022/01/13 08:34:17;;;;;;;7.00;2.85;;;20.30;51.10;;;;;;4995302;28;20420;-60
2022/01/13 08:36:43;;;;;;;5.80;2.70;;;20.30;51.20;;;;;;4996384;28;20042;-61
2022/01/13 08:39:09;;;;;;;4.50;2.70;;;20.30;51.20;;;;;;4995768;28;20375;-61
2022/01/13 08:41:35;;;;;;;4.75;2.72;;;20.30;51.20;;;;;;4994915;28;20072;-62
2022/01/13 08:44:00;;;;;;;5.55;2.65;;;20.30;51.20;;;;;;4995996;28;20126;-60
2022/01/13 08:46:26;;;;;;;6.10;3.05;;;20.30;51.10;;;;;;4995844;28;20049;-61
2022/01/13 08:48:52;;;;;;;6.82;2.88;;;20.30;51.10;;;;;;4995235;28;20046;-60
2022/01/13 08:51:18;;;;;;;5.93;2.78;;;20.40;51.20;;;;;;4995750;28;20409;-60
2022/01/13 08:53:45;;;;;;;4.75;2.72;;;20.30;51.20;;;;;;5001733;28;20077;-60
2022/01/13 08:56:11;;;;;;;9.43;3.35;;;20.30;51.30;;;;;;5014619;28;20499;-60
2022/01/13 08:58:36;;;;;;;5.25;3.15;;;20.30;51.30;;;;;;5013519;28;20134;-60
2022/01/13 09:01:02;;;;;;;4.40;2.65;;;20.30;51.40;;;;;;5014353;28;20053;-60
2022/01/13 09:03:28;;;;;;;4.40;2.65;;;20.30;51.40;;;;;;5014092;28;20088;-59
2022/01/13 09:05:53;;;;;;;5.78;3.30;;;20.40;52.30;;;;;;5014486;28;20046;-60
2022/01/13 09:08:19;;;;;;;4.75;2.60;;;20.40;51.50;;;;;;5013431;28;20099;-59
2022/01/13 09:10:44;;;;;;;5.18;3.03;;;20.40;51.60;;;;;;4995100;28;20047;-59
2022/01/13 09:13:12;;;;;;;5.82;2.67;;;20.40;51.60;;;;;;4995900;28;20081;-60
2022/01/13 09:15:43;;;;;;;8.00;2.97;;;20.40;51.60;;;;;;5002196;28;20066;-60
2022/01/13 09:18:16;;;;;;;4.47;2.60;;;20.40;51.60;;;;;;4994120;28;20050;-60
2022/01/13 09:20:42;;;;;;;5.38;3.03;;;20.40;51.40;;;;;;4995674;28;20046;-60
2022/01/13 09:23:08;;;;;;;4.78;2.65;;;20.40;52.10;;;;;;4994541;28;20053;-60
2022/01/13 09:25:33;;;;;;;5.93;3.35;;;20.40;51.40;;;;;;4995175;28;20038;-60
2022/01/13 09:27:59;;;;;;;7.38;3.03;;;20.40;51.40;;;;;;4995208;28;20050;-60
2022/01/13 09:30:24;;;;;;;5.88;2.90;;;20.40;51.30;;;;;;5001900;28;20041;-59
2022/01/13 09:32:51;;;;;;;7.40;3.65;;;20.40;51.30;;;;;;5009035;28;20066;-59
2022/01/13 09:35:16;;;;;;;5.18;2.95;;;20.40;51.40;;;;;;4996404;28;20074;-59
2022/01/13 09:37:42;;;;;;;4.68;2.72;;;20.40;51.60;;;;;;4994104;28;20084;-59
2022/01/13 09:40:09;;;;;;;5.22;2.60;;;20.40;51.80;;;;;;4994967;28;20038;-59
2022/01/13 09:42:35;;;;;;;8.50;2.85;;;20.40;51.90;;;;;;4994031;28;20046;-59
2022/01/13 09:45:01;;;;;;;4.43;2.78;;;20.50;51.90;;;;;;4993207;28;20085;-59
2022/01/13 09:47:27;;;;;;;5.60;2.60;;;20.40;52.00;;;;;;4994839;28;20092;-59
2022/01/13 09:49:52;;;;;;;7.13;3.08;;;20.50;52.10;;;;;;4993728;28;20078;-59
2022/01/13 09:52:20;;;;;;;5.47;2.63;;;20.50;52.10;;;;;;4993557;28;20125;-59
2022/01/13 09:54:45;;;;;;;4.63;2.60;;;20.50;52.20;;;;;;4995204;28;20470;-59
2022/01/13 09:57:11;;;;;;;6.00;2.97;;;20.50;52.20;;;;;;4998216;28;20126;-59
2022/01/13 09:59:36;;;;;;;6.93;2.58;;;20.50;52.30;;;;;;4993674;28;20054;-59
2022/01/13 10:02:02;;;;;;;6.10;2.78;;;20.50;52.30;;;;;;4994732;28;20093;-60
2022/01/13 10:04:46;;;;;;;6.45;3.00;;;20.50;52.30;;;;;;4994291;28;20105;-59
2022/01/13 10:07:13;;;;;;;5.40;2.95;;;20.50;52.40;;;;;;4995068;28;20081;-59
2022/01/13 10:09:52;;;;;;;6.18;2.85;;;20.50;52.40;;;;;;4994385;28;20565;-59
2022/01/13 10:12:26;;;;;;;5.57;2.60;;;20.50;52.40;;;;;;4994677;28;20416;-59
2022/01/13 10:17:24;;;;;;;4.72;2.47;;;20.50;52.40;;;;;;5013824;28;20053;-59
2022/01/13 10:19:50;;;;;;;4.57;3.05;;;20.50;52.20;;;;;;5012950;28;20056;-60
2022/01/13 10:22:15;;;;;;;4.80;2.63;;;20.60;52.20;;;;;;5005466;28;20137;-59
2022/01/13 10:24:46;;;;;;;4.63;2.67;;;20.60;52.20;;;;;;4994344;28;20390;-60
2022/01/13 10:27:13;;;;;;;5.43;2.63;;;20.50;52.20;;;;;;4993366;28;20056;-60
2022/01/13 10:29:40;;;;;;;4.53;2.67;;;20.60;52.30;;;;;;4993752;28;20406;-59
2022/01/13 10:32:07;;;;;;;4.50;2.50;;;20.60;52.30;;;;;;4994389;28;20042;-60
2022/01/13 10:34:34;;;;;;;5.97;2.78;;;20.60;52.30;;;;;;4993343;28;20046;-60
2022/01/13 10:37:11;;;;;;;5.85;2.78;;;20.60;52.30;;;;;;5008876;28;20042;-60
2022/01/13 10:39:50;;;;;;;5.05;2.60;;;20.60;52.20;;;;;;4994698;28;20046;-59
2022/01/13 10:45:07;;;;;;;6.93;2.88;;;20.60;52.20;;;;;;5003862;28;20042;-59
2022/01/13 10:47:33;;;;;;;6.05;3.17;;;20.60;52.20;;;;;;5003356;28;20532;-59
2022/01/13 10:50:04;;;;;;;5.45;2.90;;;20.60;52.30;;;;;;5002589;28;20117;-59
2022/01/13 10:52:30;;;;;;;5.70;2.75;;;20.60;52.40;;;;;;5001957;28;20052;-58
2022/01/13 10:55:12;;;;;;;6.53;2.97;;;20.60;52.40;;;;;;5002172;28;20414;-59
2022/01/13 10:57:38;;;;;;;6.18;3.13;;;20.70;52.40;;;;;;4994764;28;20042;-59
2022/01/13 11:00:05;;;;;;;5.15;3.00;;;20.70;52.50;;;;;;4995895;28;20042;-59
2022/01/13 11:02:30;;;;;;;6.35;3.20;;;20.70;52.50;;;;;;5000805;28;20112;-59
2022/01/13 11:04:56;;;;;;;4.88;2.85;;;20.70;52.50;;;;;;5002564;28;20042;-59
2022/01/13 11:07:24;;;;;;;4.68;2.80;;;20.70;52.50;;;;;;5010970;28;20512;-59
2022/01/13 11:09:54;;;;;;;4.38;2.75;;;20.70;52.40;;;;;;5012102;28;20041;-59
2022/01/13 11:12:36;;;;;;;4.82;3.00;;;20.70;52.50;;;;;;5012597;28;20069;-59
2022/01/13 11:15:07;;;;;;;4.68;2.78;;;20.70;52.50;;;;;;5012602;28;20474;-59
2022/01/13 11:17:34;;;;;;;6.03;2.92;;;20.70;52.50;;;;;;4992075;28;20149;-59
2022/01/13 11:20:00;;;;;;;6.00;2.97;;;20.70;53.20;;;;;;4996653;28;20072;-59
2022/01/13 11:22:25;;;;;;;5.30;2.83;;;20.70;52.50;;;;;;5011107;28;20069;-59
2022/01/13 11:24:51;;;;;;;5.10;2.67;;;20.70;52.50;;;;;;5015574;28;20072;-60
2022/01/13 11:27:20;;;;;;;4.95;2.80;;;20.70;52.50;;;;;;5032005;28;20520;-61
2022/01/13 11:29:46;;;;;;;6.25;3.20;;;20.70;52.50;;;;;;5030966;28;20041;-61
2022/01/13 11:32:14;;;;;;;5.80;3.17;;;20.80;52.50;;;;;;5030613;28;20046;-63
2022/01/13 11:34:40;;;;;;;7.35;3.42;;;20.70;52.40;;;;;;5031884;28;20052;-62
2022/01/13 11:37:06;;;;;;;4.88;2.95;;;20.70;52.20;;;;;;5004954;28;20050;-62
2022/01/13 11:39:36;;;;;;;5.45;3.08;;;20.70;52.10;;;;;;4993386;28;20046;-62
2022/01/13 11:42:03;;;;;;;6.45;3.10;;;20.70;52.10;;;;;;5012294;28;20603;-62
2022/01/13 11:44:29;;;;;;;5.00;3.08;;;20.70;52.10;;;;;;5011693;28;20046;-62
2022/01/13 11:46:54;;;;;;;6.20;3.22;;;20.70;52.00;;;;;;5012846;28;20547;-62
2022/01/13 11:49:35;;;;;;;6.35;3.40;;;20.70;52.00;;;;;;5012587;28;20489;-62
2022/01/13 11:52:32;;;;;;;5.43;3.05;;;20.70;52.10;;;;;;5011971;28;20038;-61
2022/01/13 11:54:47;;;;;;;5.90;3.53;;;20.70;52.10;;;;;;5016924;28;20072;-61
2022/01/13 11:57:25;;;;;;;5.80;3.42;;;20.70;52.00;;;;;;4997538;28;20120;-62
2022/01/13 11:59:57;;;;;;;5.28;3.00;;;20.70;52.00;;;;;;5011717;28;20512;-62
2022/01/13 12:02:26;;;;;;;5.47;3.78;;;20.70;52.10;;;;;;5012390;28;20082;-63
2022/01/13 12:05:06;;;;;;;5.13;3.00;;;20.70;52.10;;;;;;4993898;28;20054;-61
2022/01/13 12:07:44;;;;;;;4.75;3.00;;;20.70;52.10;;;;;;5015806;28;20612;-62
2022/01/13 12:10:29;;;;;;;5.97;3.40;;;20.70;52.10;;;;;;5016292;28;20557;-63
2022/01/13 12:12:55;;;;;;;7.07;3.53;;;20.70;52.10;;;;;;5015425;28;20393;-62
2022/01/13 12:15:21;;;;;;;7.50;3.42;;;20.70;52.00;;;;;;5015671;28;20473;-62
2022/01/13 12:17:49;;;;;;;6.90;3.90;;;20.70;51.90;;;;;;5015935;28;20120;-62
2022/01/13 12:20:27;;;;;;;8.10;3.78;;;20.70;52.00;;;;;;5015669;28;20053;-62
2022/01/13 12:23:04;;;;;;;6.63;3.25;;;20.70;51.90;;;;;;5016139;28;20042;-61
2022/01/13 12:25:31;;;;;;;7.93;3.53;;;20.70;51.90;;;;;;5015223;28;20455;-62
2022/01/13 12:27:58;;;;;;;7.03;3.63;;;20.70;51.90;;;;;;4997161;28;20053;-62
2022/01/13 12:30:28;;;;;;;7.68;3.67;;;20.70;52.00;;;;;;4997874;28;20088;-59
2022/01/13 12:32:57;;;;;;;8.70;3.63;;;20.70;52.20;;;;;;5017814;28;20041;-60
2022/01/13 12:35:38;;;;;;;8.60;3.53;;;20.70;52.30;;;;;;5025598;28;20054;-60
2022/01/13 12:38:11;;;;;;;7.10;3.30;;;20.70;52.50;;;;;;5025439;28;20041;-60
2022/01/13 12:40:46;;;;;;;6.40;3.75;;;20.80;52.50;;;;;;5022019;28;20076;-60
2022/01/13 12:43:21;;;;;;;7.57;3.90;;;20.80;52.50;;;;;;5024132;28;20366;-60
2022/01/13 12:45:46;;;;;;;8.80;3.97;;;20.80;52.50;;;;;;5026458;28;20412;-60
2022/01/13 12:48:12;;;;;;;8.32;3.90;;;20.80;52.50;;;;;;5007586;28;20053;-60
2022/01/13 12:50:42;;;;;;;7.95;4.30;;;20.80;52.50;;;;;;5026209;28;20477;-60
2022/01/13 12:53:15;;;;;;;9.55;4.45;;;20.80;52.40;;;;;;5024483;28;20507;-61
2022/01/13 12:55:42;;;;;;;7.85;3.85;;;20.80;52.40;;;;;;5020391;28;20437;-60
2022/01/13 12:58:08;;;;;;;9.23;4.72;;;20.80;52.40;;;;;;5015092;28;20061;-59
2022/01/13 13:00:33;;;;;;;8.82;4.35;;;20.80;52.40;;;;;;5014492;28;20050;-59
2022/01/13 13:03:07;;;;;;;9.93;4.72;;;20.80;52.30;;;;;;5014089;28;20076;-59
2022/01/13 13:05:36;;;;;;;8.15;4.47;;;20.80;52.20;;;;;;5021127;28;20520;-62
2022/01/13 13:08:02;;;;;;;8.75;4.55;;;20.80;52.30;;;;;;4996576;28;20138;-60
2022/01/13 13:10:29;;;;;;;9.88;4.70;;;20.80;52.90;;;;;;5014370;28;20125;-60
2022/01/13 13:12:55;;;;;;;7.60;4.20;;;20.80;52.20;;;;;;5015013;28;20413;-60
2022/01/13 13:17:49;;;;;;;8.15;4.25;;;20.80;52.10;;;;;;5013730;28;20100;-60